Hobart Regional Office, Australia
Current Conditions -  °F | °C
As of 9:00 AM on Friday 28 Nov 2014 (Local Time) from YMHB Reporting Station
Broken Clouds Broken Clouds  
Wind Chill: 55°   Ceiling: 4200
Heat Index: 55°   Visibility: 6mi
Dew Point: 36°   Wind: 10mph
Humidity: 47%   Direction: 330°NNW
Pressure: 30.21"   Gusts: NA
Location:  42.88°S, 147.32°E
Report Text: YMHB 272200Z 33009KT 9999 BKN042 13/02 Q1023
Loading
Personal Weather Stations






























Interactive Weather Map New forecast layout! Learn more

10-Day Weather Forecast

Advertisements
Track Severe Weather on mobile